Flugplatz Hannover

Bericht für EDDV

vom 15.12. um 05:20 UTC

Wind 4 kt aus 250°

Sichtweite 10 km oder mehr

aufgelockert bewölkt in 800 ft

aufgebrochene Bewölkung in 3800 ft

Temperatur 1.0°C

Taupunkt 0.0°C

Luftfeuchtigkeit 93%

Luftdruck 992 hPa

keine wesentliche Wetteränderung innerhalb den nächsten 2 Stunden zu erwarten

EDDV 150520Z 25004KT 220V290 9999 SCT008 BKN038 01/00 Q0992 NOSIG

Prognose für EDDV

vom 15.12. um 05:00 UTC

Zwischen 06:00 UTC und 11:00 UTC zeitweise

aufgebrochene Bewölkung in 800 ft


Zwischen 06:00 und 09:00 UTC übergehend zu

Wind 5 kt aus 240°

Sichtweite 10 km oder mehr

aufgebrochene Bewölkung in 2500 ft


Zwischen 06:00 UTC und 06:00 UTC

variable Windrichtung mit 2 kt

Sichtweite 10 km oder mehr

aufgebrochene Bewölkung in 2500 ft


Zwischen 21:00 UTC und 06:00 UTC zeitweise

aufgebrochene Bewölkung in 1200 ft

TAF EDDV 150500Z 1506/1606 VRB02KT 9999 BKN025 BECMG 1506/1509 24005KT TEMPO 1506/1511 BKN008 TEMPO 1521/1606 BKN012
Impressum